createdAt,value
2023-05-05T00:00:22.035Z,46.46
2023-05-05T00:03:11.353Z,45.96
2023-05-05T00:05:40.654Z,46.15
2023-05-05T00:08:09.645Z,46.52
2023-05-05T00:10:40.355Z,46.99
2023-05-05T00:13:10.424Z,47.50
2023-05-05T00:15:41.551Z,47.91
2023-05-05T00:18:13.268Z,48.34
2023-05-05T00:20:41.006Z,48.47
2023-05-05T00:23:08.168Z,48.98
2023-05-05T00:25:35.756Z,49.83
2023-05-05T00:28:02.771Z,49.92
2023-05-05T00:30:30.236Z,49.67
2023-05-05T00:32:57.432Z,50.03
2023-05-05T00:35:24.928Z,49.83
2023-05-05T00:37:52.019Z,49.96
2023-05-05T00:40:19.348Z,50.22
2023-05-05T00:42:52.756Z,49.87
2023-05-05T00:45:21.313Z,49.78
2023-05-05T00:48:02.573Z,50.25
2023-05-05T00:50:32.536Z,50.43
2023-05-05T00:53:06.576Z,50.32
2023-05-05T00:55:37.737Z,49.97
2023-05-05T00:58:07.431Z,50.51
2023-05-05T01:00:36.105Z,50.77
2023-05-05T01:03:06.941Z,50.17
2023-05-05T01:05:57.528Z,50.50
2023-05-05T01:08:39.012Z,50.52
2023-05-05T01:11:28.087Z,50.71
2023-05-05T01:14:20.276Z,50.67
2023-05-05T01:17:09.578Z,50.65
2023-05-05T01:19:57.002Z,50.82
2023-05-05T01:22:42.568Z,51.32
2023-05-05T01:25:27.102Z,50.84
2023-05-05T01:29:04.289Z,50.95
2023-05-05T01:31:55.084Z,50.98
2023-05-05T01:34:37.052Z,50.83
2023-05-05T01:37:16.712Z,50.09
2023-05-05T01:39:50.094Z,51.17
2023-05-05T01:42:20.725Z,51.04
2023-05-05T01:44:52.224Z,51.46
2023-05-05T01:47:23.649Z,51.57
2023-05-05T01:49:52.467Z,51.13
2023-05-05T01:52:21.856Z,51.63
2023-05-05T01:54:52.650Z,51.16
2023-05-05T01:57:23.194Z,52.00
2023-05-05T01:59:53.273Z,52.08
2023-05-05T02:02:23.325Z,52.33
2023-05-05T02:04:54.685Z,52.20
2023-05-05T02:07:23.746Z,51.68
2023-05-05T02:09:53.373Z,51.46
2023-05-05T02:12:22.689Z,51.66
2023-05-05T02:14:52.332Z,52.16
2023-05-05T02:17:23.267Z,52.01
2023-05-05T02:19:53.204Z,51.54
2023-05-05T02:22:20.810Z,51.98
2023-05-05T02:24:49.219Z,52.21
2023-05-05T02:27:20.967Z,52.46
2023-05-05T02:29:54.352Z,52.58
2023-05-05T02:32:33.744Z,51.85
2023-05-05T02:35:18.223Z,52.08
2023-05-05T02:37:51.651Z,52.16
2023-05-05T02:40:26.544Z,52.09
2023-05-05T02:42:57.453Z,52.78
2023-05-05T02:45:27.837Z,53.34
2023-05-05T02:47:57.468Z,52.68
2023-05-05T02:50:24.832Z,53.10
2023-05-05T02:52:51.905Z,53.13
2023-05-05T02:55:19.802Z,52.89
2023-05-05T02:58:11.699Z,53.14
2023-05-05T03:00:53.698Z,53.69
2023-05-05T03:03:46.421Z,53.51
2023-05-05T03:06:21.471Z,53.71
2023-05-05T03:09:16.124Z,53.53
2023-05-05T03:12:20.464Z,53.90
2023-05-05T03:14:54.408Z,53.58
2023-05-05T03:17:24.689Z,54.02
2023-05-05T03:19:52.753Z,53.64
2023-05-05T03:22:20.197Z,53.68
2023-05-05T03:24:54.845Z,53.70
2023-05-05T03:27:25.922Z,53.34
2023-05-05T03:29:56.130Z,53.33
2023-05-05T03:32:26.609Z,53.50
2023-05-05T03:34:56.692Z,54.34
2023-05-05T03:37:26.451Z,54.52
2023-05-05T03:39:54.824Z,54.75
2023-05-05T03:42:24.428Z,54.96
2023-05-05T03:44:56.834Z,54.69
2023-05-05T03:47:26.462Z,54.42
2023-05-05T03:49:56.291Z,53.91
2023-05-05T03:52:25.801Z,53.66
2023-05-05T03:54:55.145Z,53.89
2023-05-05T03:57:24.983Z,53.89
2023-05-05T03:59:54.558Z,54.39
2023-05-05T04:02:23.753Z,54.76
2023-05-05T04:04:53.176Z,54.70
2023-05-05T04:07:24.884Z,53.79
2023-05-05T04:09:57.508Z,54.05
2023-05-05T04:12:28.187Z,53.81
2023-05-05T04:14:58.131Z,54.60
2023-05-05T04:17:27.419Z,54.72
2023-05-05T04:19:55.317Z,54.38
2023-05-05T04:22:26.966Z,54.80
2023-05-05T04:24:57.215Z,54.49
2023-05-05T04:27:30.039Z,54.69
2023-05-05T04:29:59.199Z,54.74
2023-05-05T04:32:29.061Z,54.35
2023-05-05T04:34:57.756Z,54.91
2023-05-05T04:37:28.960Z,54.35
2023-05-05T04:39:57.369Z,54.62
2023-05-05T04:42:24.879Z,55.02
2023-05-05T04:44:54.811Z,54.51
2023-05-05T04:47:24.390Z,54.92
2023-05-05T04:49:56.509Z,54.99
2023-05-05T04:52:24.459Z,54.94
2023-05-05T04:54:51.950Z,54.97
2023-05-05T04:57:20.122Z,55.05
2023-05-05T04:59:47.299Z,54.08
2023-05-05T05:02:14.850Z,54.36
2023-05-05T05:04:42.113Z,54.26
2023-05-05T05:07:09.628Z,53.87
2023-05-05T05:09:38.065Z,54.65
2023-05-05T05:12:07.408Z,53.65
2023-05-05T05:14:40.612Z,53.26
2023-05-05T05:17:08.122Z,53.31
2023-05-05T05:19:37.553Z,52.82
2023-05-05T05:22:07.959Z,51.94
2023-05-05T05:24:36.899Z,52.30
2023-05-05T05:27:09.848Z,52.61
2023-05-05T05:29:38.045Z,52.00
2023-05-05T05:32:05.783Z,51.60
2023-05-05T05:34:33.069Z,51.39
2023-05-05T05:37:00.581Z,51.34
2023-05-05T05:39:27.647Z,51.41
2023-05-05T05:41:55.227Z,51.38
2023-05-05T05:44:22.749Z,51.35
2023-05-05T05:46:50.008Z,50.44
2023-05-05T05:49:17.328Z,51.00
2023-05-05T05:51:44.738Z,50.45
2023-05-05T05:54:12.065Z,50.41
2023-05-05T05:56:40.286Z,51.05
2023-05-05T05:59:10.752Z,51.20
2023-05-05T06:01:40.463Z,51.28
2023-05-05T06:04:08.136Z,51.54
2023-05-05T06:06:35.658Z,51.99
2023-05-05T06:09:03.613Z,52.29
2023-05-05T06:11:31.077Z,52.22
2023-05-05T06:13:58.729Z,52.28
2023-05-05T06:16:26.214Z,52.43
2023-05-05T06:18:53.470Z,52.05
2023-05-05T06:21:21.006Z,51.98
2023-05-05T06:23:48.171Z,51.87
2023-05-05T06:26:15.829Z,51.34
2023-05-05T06:28:42.922Z,51.05
2023-05-05T06:31:12.961Z,50.86
2023-05-05T06:33:40.056Z,50.49
2023-05-05T06:36:07.806Z,49.37
2023-05-05T06:38:35.131Z,49.31
2023-05-05T06:41:02.748Z,48.00
2023-05-05T06:43:29.880Z,47.83
2023-05-05T06:45:57.212Z,47.79
2023-05-05T06:48:24.499Z,47.27
2023-05-05T06:50:52.097Z,46.04
2023-05-05T06:53:19.167Z,45.94
2023-05-05T06:55:48.189Z,45.35
2023-05-05T06:58:15.300Z,43.89
2023-05-05T07:00:42.837Z,43.52
2023-05-05T07:03:10.095Z,42.95
2023-05-05T07:05:37.691Z,42.43
2023-05-05T07:08:05.519Z,42.17
2023-05-05T07:10:33.640Z,42.10
2023-05-05T07:13:01.070Z,41.50
2023-05-05T07:15:29.807Z,41.90
2023-05-05T07:17:58.248Z,41.27
2023-05-05T07:20:26.194Z,41.41
2023-05-05T07:22:53.306Z,41.17
2023-05-05T07:25:21.953Z,40.46
2023-05-05T07:27:49.186Z,40.69
2023-05-05T07:30:18.660Z,40.29
2023-05-05T07:32:46.162Z,40.45
2023-05-05T07:35:13.852Z,39.90
2023-05-05T07:37:41.020Z,40.31
2023-05-05T07:40:09.361Z,40.61
2023-05-05T07:42:36.667Z,40.97
2023-05-05T07:45:05.435Z,41.18
2023-05-05T07:47:33.304Z,41.21
2023-05-05T07:50:01.400Z,41.31
2023-05-05T07:52:44.207Z,40.86
2023-05-05T07:55:15.742Z,40.43
2023-05-05T07:57:43.007Z,40.40
2023-05-05T08:00:11.604Z,40.17
2023-05-05T08:02:39.249Z,39.45
2023-05-05T08:05:07.595Z,39.65
2023-05-05T08:07:36.652Z,38.91
2023-05-05T08:10:04.365Z,38.66
2023-05-05T08:12:31.592Z,38.61
2023-05-05T08:14:59.232Z,38.19
2023-05-05T08:17:27.154Z,37.98
2023-05-05T08:19:54.723Z,37.65
2023-05-05T08:22:22.721Z,37.83
2023-05-05T08:24:50.067Z,37.84
2023-05-05T08:27:17.260Z,37.25
2023-05-05T08:29:44.694Z,37.37
2023-05-05T08:32:11.813Z,36.96
2023-05-05T08:34:39.297Z,36.75
2023-05-05T08:37:07.166Z,36.75
2023-05-05T08:39:34.999Z,36.72
2023-05-05T08:42:03.549Z,37.10
2023-05-05T08:44:31.126Z,36.72
2023-05-05T08:47:02.054Z,36.67
2023-05-05T08:49:40.520Z,36.20
2023-05-05T08:52:11.855Z,36.39
2023-05-05T08:54:50.353Z,36.21
2023-05-05T08:57:28.561Z,36.22
2023-05-05T08:59:58.935Z,36.06
2023-05-05T09:02:30.060Z,35.72
2023-05-05T09:04:57.785Z,35.44
2023-05-05T09:07:25.571Z,34.69
2023-05-05T09:09:53.529Z,35.07
2023-05-05T09:12:22.214Z,34.91
2023-05-05T09:14:49.589Z,34.74
2023-05-05T09:17:26.921Z,33.53
2023-05-05T09:20:07.458Z,33.62
2023-05-05T09:22:41.447Z,33.53
2023-05-05T09:25:17.907Z,34.25
2023-05-05T09:27:48.422Z,34.20
2023-05-05T09:30:23.463Z,34.06
2023-05-05T09:32:55.855Z,33.78
2023-05-05T09:35:23.729Z,33.40
2023-05-05T09:37:51.155Z,33.23
2023-05-05T09:40:20.536Z,33.48
2023-05-05T09:42:48.552Z,33.13
2023-05-05T09:45:19.298Z,33.47
2023-05-05T09:47:48.141Z,32.93
2023-05-05T09:50:19.021Z,33.19
2023-05-05T09:53:01.684Z,32.79
2023-05-05T09:55:33.539Z,31.22
2023-05-05T09:58:20.631Z,30.65
2023-05-05T10:00:48.155Z,30.64
2023-05-05T10:03:16.138Z,31.00
2023-05-05T10:06:09.942Z,30.85
2023-05-05T10:08:37.116Z,30.30
2023-05-05T10:11:06.930Z,30.83
2023-05-05T10:13:42.095Z,30.98
2023-05-05T10:16:13.252Z,30.71
2023-05-05T10:18:46.720Z,30.82
2023-05-05T10:21:21.691Z,30.80
2023-05-05T10:23:58.623Z,29.99
2023-05-05T10:26:28.413Z,29.68
2023-05-05T10:28:56.966Z,29.80
2023-05-05T10:31:48.895Z,29.69
2023-05-05T10:34:37.840Z,29.75
2023-05-05T10:37:07.259Z,29.79
2023-05-05T10:39:37.662Z,29.68
2023-05-05T10:42:05.336Z,29.96
2023-05-05T10:44:33.389Z,29.60
2023-05-05T10:47:02.740Z,29.94
2023-05-05T10:50:02.576Z,29.59
2023-05-05T10:53:15.472Z,29.53
2023-05-05T10:55:58.806Z,29.04
2023-05-05T10:58:59.642Z,28.41
2023-05-05T11:01:36.519Z,28.18
2023-05-05T11:04:24.025Z,28.47
2023-05-05T11:10:06.729Z,28.95
2023-05-05T11:13:00.155Z,29.63
2023-05-05T11:15:34.471Z,29.61
2023-05-05T11:18:05.021Z,29.44
2023-05-05T11:20:36.840Z,29.81
2023-05-05T11:23:21.989Z,29.58
2023-05-05T11:25:51.429Z,28.70
2023-05-05T11:28:25.668Z,28.51
2023-05-05T11:30:56.934Z,28.41
2023-05-05T11:33:38.688Z,28.30
2023-05-05T11:36:14.688Z,28.33
2023-05-05T11:39:22.208Z,29.35
2023-05-05T11:42:23.592Z,28.51
2023-05-05T11:44:51.321Z,27.79
2023-05-05T11:47:18.577Z,28.13
2023-05-05T11:49:46.941Z,27.74
2023-05-05T11:52:15.141Z,27.81
2023-05-05T11:54:47.949Z,27.92
2023-05-05T11:57:20.222Z,27.89
2023-05-05T11:59:57.023Z,28.03
2023-05-05T12:02:26.642Z,27.11
2023-05-05T12:04:54.512Z,27.54
2023-05-05T12:07:25.011Z,27.25
2023-05-05T12:09:52.966Z,27.33
2023-05-05T12:12:21.143Z,27.32
2023-05-05T12:14:53.037Z,27.71
2023-05-05T12:17:23.035Z,27.44
2023-05-05T12:19:54.162Z,26.91
2023-05-05T12:22:26.732Z,27.29
2023-05-05T12:24:58.941Z,27.32
2023-05-05T12:27:28.181Z,26.89
2023-05-05T12:29:57.326Z,27.32
2023-05-05T12:32:28.320Z,27.69
2023-05-05T12:34:59.388Z,27.17
2023-05-05T12:37:27.743Z,25.78
2023-05-05T12:39:57.373Z,25.71
2023-05-05T12:42:24.624Z,25.09
2023-05-05T12:44:52.222Z,25.26
2023-05-05T12:47:45.943Z,25.36
2023-05-05T12:50:13.032Z,24.43
2023-05-05T12:52:45.324Z,24.28
2023-05-05T12:55:13.035Z,24.18
2023-05-05T12:58:04.683Z,24.20
2023-05-05T13:00:31.975Z,24.45
2023-05-05T13:02:59.310Z,24.99
2023-05-05T13:05:33.969Z,24.90
2023-05-05T13:08:01.143Z,24.67
2023-05-05T13:10:31.401Z,24.18
2023-05-05T13:12:58.785Z,23.61
2023-05-05T13:15:26.188Z,22.72
2023-05-05T13:18:01.339Z,22.64
2023-05-05T13:20:28.598Z,21.81
2023-05-05T13:22:55.879Z,21.73
2023-05-05T13:25:22.910Z,22.06
2023-05-05T13:27:50.335Z,22.24
2023-05-05T13:30:17.348Z,22.05
2023-05-05T13:32:44.634Z,21.77
2023-05-05T13:35:13.851Z,22.74
2023-05-05T13:37:44.322Z,21.78
2023-05-05T13:40:13.384Z,22.92
2023-05-05T13:42:40.638Z,22.16
2023-05-05T13:45:08.428Z,22.39
2023-05-05T13:47:36.224Z,22.23
2023-05-05T13:50:03.488Z,22.17
2023-05-05T13:52:32.128Z,22.78
2023-05-05T13:55:00.922Z,23.62
2023-05-05T13:57:28.298Z,23.65
2023-05-05T13:59:55.276Z,24.23
2023-05-05T14:02:22.537Z,23.82
2023-05-05T14:04:49.537Z,23.94
2023-05-05T14:07:16.911Z,23.60
2023-05-05T14:09:43.842Z,23.12
2023-05-05T14:12:11.032Z,23.46
2023-05-05T14:14:38.091Z,22.92
2023-05-05T14:17:05.400Z,23.79
2023-05-05T14:19:32.487Z,22.83
2023-05-05T14:21:59.652Z,23.64
2023-05-05T14:24:27.255Z,23.52
2023-05-05T14:26:54.456Z,23.41
2023-05-05T14:29:21.389Z,23.64
2023-05-05T14:31:48.548Z,23.74
2023-05-05T14:34:15.560Z,23.29
2023-05-05T14:36:42.761Z,23.13
2023-05-05T14:39:09.709Z,23.32
2023-05-05T14:41:36.874Z,23.52
2023-05-05T14:44:03.972Z,24.32
2023-05-05T14:46:31.876Z,22.81
2023-05-05T14:48:59.080Z,23.49
2023-05-05T14:51:26.336Z,22.88
2023-05-05T14:53:53.336Z,23.03
2023-05-05T14:56:22.840Z,22.88
2023-05-05T14:58:50.171Z,22.39
2023-05-05T15:01:17.509Z,21.97
2023-05-05T15:03:44.599Z,22.39
2023-05-05T15:06:12.261Z,22.86
2023-05-05T15:08:39.244Z,22.73
2023-05-05T15:11:06.974Z,22.64
2023-05-05T15:13:33.947Z,22.51
2023-05-05T15:16:01.447Z,22.63
2023-05-05T15:18:28.470Z,22.50
2023-05-05T15:20:55.725Z,22.70
2023-05-05T15:23:22.690Z,22.16
2023-05-05T15:25:50.020Z,22.27
2023-05-05T15:28:17.497Z,21.92
2023-05-05T15:30:45.297Z,22.26
2023-05-05T15:33:12.203Z,22.50
2023-05-05T15:35:39.396Z,22.40
2023-05-05T15:38:06.377Z,21.63
2023-05-05T15:40:33.833Z,21.81
2023-05-05T15:43:00.862Z,22.09
2023-05-05T15:45:28.137Z,22.10
2023-05-05T15:47:55.034Z,21.86
2023-05-05T15:50:23.395Z,21.65
2023-05-05T15:52:50.433Z,20.94
2023-05-05T15:55:17.796Z,20.83
2023-05-05T15:57:44.757Z,20.75
2023-05-05T16:00:13.080Z,20.14
2023-05-05T16:02:40.209Z,20.82
2023-05-05T16:05:08.298Z,20.60
2023-05-05T16:07:35.519Z,20.96
2023-05-05T16:10:03.750Z,20.87
2023-05-05T16:12:31.131Z,21.62
2023-05-05T16:14:58.771Z,21.45
2023-05-05T16:17:25.826Z,21.97
2023-05-05T16:19:53.134Z,21.72
2023-05-05T16:22:21.070Z,22.36
2023-05-05T16:24:48.375Z,22.94
2023-05-05T16:27:15.484Z,23.07
2023-05-05T16:29:42.718Z,23.84
2023-05-05T16:32:09.640Z,23.74
2023-05-05T16:34:36.826Z,23.51
2023-05-05T16:37:03.884Z,23.85
2023-05-05T16:39:32.982Z,23.68
2023-05-05T16:41:59.990Z,23.78
2023-05-05T16:44:27.317Z,24.17
2023-05-05T16:46:54.268Z,24.47
2023-05-05T16:49:24.128Z,24.66
2023-05-05T16:51:53.507Z,24.81
2023-05-05T16:54:20.773Z,24.84
2023-05-05T16:56:47.686Z,25.97
2023-05-05T16:59:18.347Z,26.28
2023-05-05T17:01:45.406Z,25.30
2023-05-05T17:04:12.532Z,25.38
2023-05-05T17:06:39.528Z,25.16
2023-05-05T17:09:06.768Z,25.96
2023-05-05T17:11:33.753Z,25.58
2023-05-05T17:14:01.667Z,25.55
2023-05-05T17:16:28.783Z,26.87
2023-05-05T17:18:55.985Z,26.42
2023-05-05T17:21:23.528Z,27.18
2023-05-05T17:23:50.977Z,27.06
2023-05-05T17:26:17.982Z,27.10
2023-05-05T17:28:45.242Z,27.16
2023-05-05T17:31:12.651Z,27.32
2023-05-05T17:33:40.056Z,27.16
2023-05-05T17:36:07.380Z,27.16
2023-05-05T17:38:34.760Z,27.30
2023-05-05T17:41:02.122Z,27.68
2023-05-05T17:43:29.359Z,27.13
2023-05-05T17:45:56.328Z,27.89
2023-05-05T17:48:23.675Z,27.48
2023-05-05T17:50:50.647Z,27.46
2023-05-05T17:53:17.885Z,27.87
2023-05-05T17:55:46.156Z,28.12
2023-05-05T17:58:13.824Z,28.11
2023-05-05T18:00:40.969Z,27.86
2023-05-05T18:03:08.323Z,27.99
2023-05-05T18:05:35.778Z,27.80
2023-05-05T18:08:03.282Z,28.16
2023-05-05T18:10:30.421Z,28.22
2023-05-05T18:12:57.875Z,28.51
2023-05-05T18:15:25.205Z,28.65
2023-05-05T18:17:53.849Z,28.55
2023-05-05T18:20:20.918Z,28.56
2023-05-05T18:22:49.200Z,28.70
2023-05-05T18:25:16.182Z,28.81
2023-05-05T18:27:44.498Z,28.84
2023-05-05T18:30:12.402Z,28.90
2023-05-05T18:32:39.565Z,29.05
2023-05-05T18:35:07.376Z,29.22
2023-05-05T18:37:35.025Z,29.20
2023-05-05T18:40:01.947Z,29.44
2023-05-05T18:42:29.275Z,29.52
2023-05-05T18:44:56.240Z,29.54
2023-05-05T18:47:23.681Z,29.73
2023-05-05T18:49:50.675Z,29.70
2023-05-05T18:52:17.970Z,29.79
2023-05-05T18:54:44.914Z,30.03
2023-05-05T18:57:12.282Z,30.46
2023-05-05T18:59:39.294Z,30.25
2023-05-05T19:02:07.963Z,30.54
2023-05-05T19:04:38.739Z,30.43
2023-05-05T19:07:06.034Z,30.57
2023-05-05T19:09:33.047Z,30.79
2023-05-05T19:12:00.194Z,30.56
2023-05-05T19:14:27.276Z,30.76
2023-05-05T19:16:55.949Z,30.89
2023-05-05T19:19:23.196Z,30.81
2023-05-05T19:21:50.734Z,30.95
2023-05-05T19:24:17.726Z,30.67
2023-05-05T19:26:44.969Z,30.98
2023-05-05T19:29:13.010Z,31.05
2023-05-05T19:31:40.323Z,31.34
2023-05-05T19:34:07.547Z,31.10
2023-05-05T19:36:34.858Z,31.30
2023-05-05T19:39:04.347Z,31.57
2023-05-05T19:41:31.774Z,31.82
2023-05-05T19:43:58.792Z,31.38
2023-05-05T19:46:26.721Z,31.50
2023-05-05T19:48:53.904Z,31.70
2023-05-05T19:51:21.237Z,31.83
2023-05-05T19:53:48.398Z,31.72
2023-05-05T19:56:16.996Z,31.86
2023-05-05T19:58:57.652Z,31.64
2023-05-05T20:01:25.982Z,32.09
2023-05-05T20:03:54.944Z,32.16
2023-05-05T20:06:23.008Z,32.23
2023-05-05T20:08:49.990Z,32.03
2023-05-05T20:11:17.837Z,32.29
2023-05-05T20:13:44.912Z,32.47
2023-05-05T20:16:12.337Z,32.64
2023-05-05T20:18:40.244Z,34.04
2023-05-05T20:21:07.428Z,35.33
2023-05-05T20:23:34.342Z,36.04
2023-05-05T20:26:01.763Z,37.10
2023-05-05T20:28:31.485Z,37.28
2023-05-05T20:30:58.677Z,37.45
2023-05-05T20:33:25.903Z,37.57
2023-05-05T20:35:53.081Z,38.32
2023-05-05T20:38:20.080Z,37.34
2023-05-05T20:40:47.320Z,37.58
2023-05-05T20:43:14.327Z,37.37
2023-05-05T20:45:41.533Z,38.26
2023-05-05T20:48:11.186Z,37.06
2023-05-05T20:50:39.279Z,37.90
2023-05-05T20:53:11.787Z,37.72
2023-05-05T20:55:38.977Z,37.71
2023-05-05T20:58:09.198Z,37.40
2023-05-05T21:00:36.583Z,37.17
2023-05-05T21:03:04.962Z,37.87
2023-05-05T21:05:32.077Z,37.23
2023-05-05T21:08:00.881Z,37.74
2023-05-05T21:10:33.110Z,37.70
2023-05-05T21:13:02.677Z,37.95
2023-05-05T21:15:29.807Z,38.18
2023-05-05T21:17:57.365Z,37.95
2023-05-05T21:20:24.472Z,37.77
2023-05-05T21:22:51.709Z,37.47
2023-05-05T21:25:21.680Z,37.31
2023-05-05T21:27:50.095Z,37.88
2023-05-05T21:30:17.619Z,38.11
2023-05-05T21:32:45.671Z,38.56
2023-05-05T21:35:13.741Z,38.50
2023-05-05T21:37:42.476Z,38.55
2023-05-05T21:40:13.504Z,39.01
2023-05-05T21:42:42.709Z,38.78
2023-05-05T21:45:12.464Z,38.96
2023-05-05T21:47:39.868Z,38.86
2023-05-05T21:50:07.773Z,38.76
2023-05-05T21:52:35.258Z,39.25
2023-05-05T21:55:02.794Z,39.30
2023-05-05T21:57:29.954Z,39.44
2023-05-05T21:59:56.869Z,39.57
2023-05-05T22:02:24.287Z,39.40
2023-05-05T22:04:51.980Z,39.55
2023-05-05T22:07:19.594Z,39.39
2023-05-05T22:09:46.704Z,39.23
2023-05-05T22:12:13.982Z,39.53
2023-05-05T22:14:40.993Z,39.65
2023-05-05T22:17:08.784Z,38.95
2023-05-05T22:19:36.058Z,39.24
2023-05-05T22:22:03.619Z,39.43
2023-05-05T22:24:30.564Z,39.34
2023-05-05T22:26:58.420Z,39.28
2023-05-05T22:29:25.677Z,39.53
2023-05-05T22:31:53.262Z,39.05
2023-05-05T22:34:21.956Z,39.66
2023-05-05T22:36:49.927Z,39.58
2023-05-05T22:39:18.597Z,39.33
2023-05-05T22:41:47.147Z,39.46
2023-05-05T22:44:14.234Z,39.39
2023-05-05T22:46:42.432Z,39.21
2023-05-05T22:49:09.568Z,39.40
2023-05-05T22:51:36.734Z,39.69
2023-05-05T22:54:04.104Z,39.61
2023-05-05T22:56:31.280Z,39.37
2023-05-05T22:58:58.249Z,39.45
2023-05-05T23:01:26.209Z,39.59
2023-05-05T23:03:53.435Z,39.70
2023-05-05T23:06:20.853Z,39.79
2023-05-05T23:08:49.278Z,39.49
2023-05-05T23:11:16.917Z,39.58
2023-05-05T23:13:43.967Z,39.92
2023-05-05T23:16:11.607Z,40.08
2023-05-05T23:18:38.866Z,40.00
2023-05-05T23:21:06.138Z,40.07
2023-05-05T23:23:33.656Z,39.80
2023-05-05T23:26:01.475Z,39.92
2023-05-05T23:28:28.428Z,40.06
2023-05-05T23:30:55.912Z,40.00
2023-05-05T23:33:23.075Z,40.16
2023-05-05T23:35:50.367Z,40.23
2023-05-05T23:38:17.653Z,39.98
2023-05-05T23:40:44.850Z,40.21
2023-05-05T23:43:12.084Z,40.44
2023-05-05T23:45:39.295Z,40.36
2023-05-05T23:48:06.431Z,40.15
2023-05-05T23:50:33.609Z,40.30
2023-05-05T23:53:00.470Z,40.45
2023-05-05T23:55:28.042Z,40.30
2023-05-05T23:57:54.935Z,40.61
